ASN logo
ASN Wikibase Occurrence # 199614
Last updated: 19 May 2019
This information is added by users of ASN. Neither ASN nor the Flight Safety Foundation are responsible for the completeness or correctness of this information. If you feel this information is incomplete or incorrect, you can submit corrected information.

Date:12-SEP-2017
Time:14:30 LT
Type:Silhouette image of generic DA42 model; specific model in this crash may look slightly different
Diamond DA42 Twin Star
Owner/operator:Private / Aeroloc
Registration: F-HFBS
C/n / msn: 42.N220
Fatalities:Fatalities: 4 / Occupants: 4
Other fatalities:0
Aircraft damage: Written off (damaged beyond repair)
Category:Accident
Location:near Ghisonaccia Alzitone Airport (LFKG), Corsica -   France
Phase: En route
Nature:Private
Departure airport:Cannes-Mandelieu Airport (CEQ/LFMD)
Destination airport:Ghisonaccia-Alzitone Airport (LFKG)
Investigating agency: BEA
Narrative:
A twin engine plane has crashed near Ghisonaccia airfield, Corsica. According to witnesses, the pilot performed a go-round du to high wind, and the plane stalled on subsequent initial climb.
All four occupants, two men and two women, all french from Truchtersheim (Bas-Rhin), died in the crash.

During the approach to Ghisonaccia, the aircraft encountered extreme aerological conditions. A rapid change in the intensity of the wind and its direction relative to the longitudinal axis of the aircraft may have led to the sudden exceeding of the stall incidence.
The pilot probably lost control of the aircraft.
The low height of the loss of control associated with the aircraft's high rate of fall did not allow the pilot to fully regain control prior to the collision with the ground.


METAR.

121500Z AUTO 28013G29KT 240V330 CAVOK 27/05 Q1010
121430Z AUTO 28009G22KT 210V020 CAVOK 27/07 Q1010
121400Z AUTO 27011G26KT 170V340 9999 FEW080 27/08 Q1010
121330Z AUTO 27012KT 230V310 CAVOK 27/07 Q1009
121300Z AUTO 28013G25KT 240V320 CAVOK 28/07 Q1009
121230Z AUTO 28012G23KT 230V330 CAVOK 28/06 Q1009
121200Z AUTO 30015G30KT 240V350 CAVOK 28/06 Q1009

Sources:

https://www.corsematin.com/article/derniere-minute/accident-davion-a-a-ghisunaccia
http://www.alta-frequenza.corsica/l_info/l_actu/accident_d_avion_un_bimoteur_s_ecrase_a_ghisonaccia_90109
http://www.lefigaro.fr/flash-actu/2017/09/12/97001-20170912FILWWW00190-corse-4-morts-dans-le-crash-d-un-avion.php
http://www.corsenetinfos.corsica/Ghisonaccia-L-avion-s-ecrase-dans-une-vigne-avec-quatre-personnes-a-bord_a29312.html
https://www.flightradar24.com/2017-09-12/12:07/12x/FHFBS/ed48dad

Accident investigation:
cover
  
Investigating agency: BEA
Status: Investigation completed
Duration: 1 year and 8 months
Download report: Final report


Images:



Revision history:

Date/timeContributorUpdates
12-Sep-2017 13:18 gerard57 Added
12-Sep-2017 14:23 gerard57 Updated [Total fatalities, Other fatalities, Source, Narrative]
12-Sep-2017 15:03 gerard57 Updated [Location, Phase, Departure airport, Destination airport, Narrative]
12-Sep-2017 17:30 Iceman 29 Updated [Time, Aircraft type, Narrative, Photo, ]
12-Sep-2017 20:08 harro Updated [Aircraft type, Source]
12-Sep-2017 20:57 Silvaire Updated [Narrative]
12-Sep-2017 21:16 Iceman 29 Updated [Phase, Embed code]
13-Sep-2017 05:51 dgger Updated [Registration, Cn, Operator, Phase, Source, Embed code]
13-Sep-2017 06:21 Iceman 29 Updated [Location, Departure airport, Destination airport, Photo, ]
13-Sep-2017 11:41 Iceman 29 Updated [Embed code]
19-May-2019 19:47 harro Updated [Departure airport, Destination airport, Narrative, Accident report, ]

Corrections or additions? ... Edit this accident description